Time;durP1;ratioP1;P1;durP2;ratioP2;P2;SDS_P1;SDS_P2;PMS_P1;PMS_P2;Temp;Humidity;BMP_temperature;BMP_pressure;BME280_temperature;BME280_humidity;BME280_pressure;Samples;Min_cycle;Max_cycle;Signal;HPM_P1;HPM_P2
2022/03/23 00:00:00;;;;;;;11.48;6.65;;;;;;;5.27;49.68;97410.69;5046900;28;20511;-72
2022/03/23 00:02:27;;;;;;;13.93;7.07;;;;;;;5.26;49.63;97409.06;5045352;28;20053;-72
2022/03/23 00:04:53;;;;;;;10.95;6.68;;;;;;;5.21;49.86;97412.53;5045758;28;20056;-72
2022/03/23 00:07:20;;;;;;;12.18;7.00;;;;;;;5.11;50.50;97417.84;5045618;28;20579;-72
2022/03/23 00:09:48;;;;;;;13.82;7.07;;;;;;;5.04;50.27;97425.38;5046253;28;20534;-73
2022/03/23 00:12:15;;;;;;;10.63;6.43;;;;;;;4.96;50.59;97422.06;5043379;28;20052;-73
2022/03/23 00:14:42;;;;;;;12.20;6.43;;;;;;;4.91;51.06;97419.31;5045802;28;20053;-73
2022/03/23 00:17:08;;;;;;;12.48;6.40;;;;;;;4.89;51.05;97429.53;5045795;28;20056;-72
2022/03/23 00:19:35;;;;;;;10.38;5.82;;;;;;;4.85;51.84;97423.00;5045724;28;20052;-73
2022/03/23 00:22:03;;;;;;;14.27;6.50;;;;;;;4.82;52.61;97428.94;5046660;28;20063;-72
2022/03/23 00:24:29;;;;;;;10.95;6.30;;;;;;;4.78;52.57;97419.72;5045255;28;20045;-73
2022/03/23 00:26:57;;;;;;;12.93;6.57;;;;;;;4.76;52.48;97419.16;5045925;28;20397;-73
2022/03/23 00:29:23;;;;;;;10.52;6.18;;;;;;;4.72;52.08;97420.75;5045292;28;20067;-73
2022/03/23 00:31:50;;;;;;;11.27;5.78;;;;;;;4.68;52.19;97419.59;5045942;28;20052;-73
2022/03/23 00:34:17;;;;;;;14.95;6.28;;;;;;;4.67;52.04;97424.19;5045383;28;20052;-73
2022/03/23 00:36:43;;;;;;;11.32;5.93;;;;;;;4.67;51.89;97426.09;5045952;28;20049;-73
2022/03/23 00:39:10;;;;;;;11.93;7.07;;;;;;;4.64;52.82;97421.19;5049306;28;20045;-73
2022/03/23 00:41:36;;;;;;;13.90;7.00;;;;;;;4.60;52.71;97415.50;5046543;28;20049;-72
2022/03/23 00:44:04;;;;;;;13.32;7.13;;;;;;;4.56;51.74;97421.66;5049864;28;20048;-73
2022/03/23 00:46:31;;;;;;;12.05;6.55;;;;;;;4.51;52.15;97413.50;5048931;28;20273;-72
2022/03/23 00:48:57;;;;;;;9.23;5.75;;;;;;;4.47;52.60;97409.66;5049465;28;20081;-73
2022/03/23 00:51:24;;;;;;;15.40;6.40;;;;;;;4.41;52.74;97409.63;5048320;28;20045;-73
2022/03/23 00:53:51;;;;;;;11.70;6.18;;;;;;;4.40;53.19;97417.97;5049519;28;20084;-73
2022/03/23 00:56:17;;;;;;;12.13;6.00;;;;;;;4.38;53.71;97410.09;5048593;28;20396;-73
2022/03/23 00:58:44;;;;;;;11.65;6.60;;;;;;;4.37;53.75;97413.06;5049010;28;20057;-73
2022/03/23 01:01:13;;;;;;;10.05;6.53;;;;;;;4.37;53.73;97404.97;5048889;28;20049;-73
2022/03/23 01:03:40;;;;;;;14.68;7.00;;;;;;;4.34;53.96;97414.41;5048755;28;20098;-73
2022/03/23 01:06:08;;;;;;;14.05;6.47;;;;;;;4.30;53.33;97413.25;5048971;28;20049;-73
2022/03/23 01:08:35;;;;;;;11.00;6.47;;;;;;;4.28;52.82;97407.31;5048460;28;20049;-73
2022/03/23 01:11:02;;;;;;;11.80;6.40;;;;;;;4.24;52.67;97408.06;5046679;28;20076;-73
2022/03/23 01:13:28;;;;;;;11.40;6.53;;;;;;;4.22;53.00;97408.31;5028322;28;20076;-72
2022/03/23 01:15:55;;;;;;;13.20;6.10;;;;;;;4.21;53.55;97412.06;5029282;28;20065;-73
2022/03/23 01:18:23;;;;;;;12.60;6.90;;;;;;;4.19;53.05;97406.94;5028207;28;20057;-73
2022/03/23 01:20:50;;;;;;;10.93;6.30;;;;;;;4.16;52.66;97409.31;5029043;28;20060;-75
2022/03/23 01:23:16;;;;;;;12.23;6.45;;;;;;;4.12;53.01;97405.47;5028524;28;20053;-73
2022/03/23 01:25:43;;;;;;;10.20;6.28;;;;;;;4.07;52.84;97394.63;5028399;28;20588;-73
2022/03/23 01:28:09;;;;;;;9.77;6.18;;;;;;;4.00;53.07;97391.31;5028876;28;20439;-73
2022/03/23 01:30:36;;;;;;;12.95;6.53;;;;;;;3.98;52.93;97394.28;5028187;28;20045;-73
2022/03/23 01:33:03;;;;;;;11.85;6.28;;;;;;;3.92;53.44;97401.47;5028907;28;20073;-73
2022/03/23 01:35:31;;;;;;;10.77;6.10;;;;;;;3.88;53.38;97405.72;5028007;28;20518;-73
2022/03/23 01:37:57;;;;;;;14.55;6.57;;;;;;;3.81;53.82;97402.41;5028847;28;20045;-73
2022/03/23 01:40:24;;;;;;;14.57;6.38;;;;;;;3.74;54.19;97393.69;5027926;28;20053;-72
2022/03/23 01:42:51;;;;;;;9.93;6.10;;;;;;;3.72;54.56;97395.00;5044733;28;20504;-72
2022/03/23 01:45:17;;;;;;;10.77;6.28;;;;;;;3.67;54.06;97398.44;5047605;28;20049;-72
2022/03/23 01:47:44;;;;;;;10.55;6.32;;;;;;;3.64;53.74;97393.53;5047838;28;20551;-73
2022/03/23 01:50:11;;;;;;;12.80;6.45;;;;;;;3.61;54.02;97402.13;5047233;28;20053;-73
2022/03/23 01:52:39;;;;;;;10.50;6.10;;;;;;;3.52;54.25;97393.66;5047362;28;20499;-73
2022/03/23 01:55:09;;;;;;;10.40;5.55;;;;;;;3.48;54.44;97387.13;5048235;28;20053;-73
2022/03/23 01:57:36;;;;;;;12.02;5.57;;;;;;;3.46;54.34;97396.53;5047514;28;20037;-73
2022/03/23 02:00:06;;;;;;;9.23;5.63;;;;;;;3.44;54.43;97390.53;5047941;28;20053;-73
2022/03/23 02:02:32;;;;;;;9.50;5.70;;;;;;;3.43;54.46;97397.81;5047553;28;20131;-73
2022/03/23 02:04:59;;;;;;;9.77;5.57;;;;;;;3.43;54.51;97397.00;5047990;28;20053;-72
2022/03/23 02:07:25;;;;;;;9.15;5.53;;;;;;;3.39;54.55;97397.50;5044378;28;20530;-72
2022/03/23 02:09:54;;;;;;;11.23;5.40;;;;;;;3.36;54.69;97403.38;5047725;28;20060;-73
2022/03/23 02:12:22;;;;;;;11.07;5.75;;;;;;;3.33;54.83;97403.84;5045548;28;20049;-73
2022/03/23 02:14:48;;;;;;;10.00;5.70;;;;;;;3.29;54.85;97397.34;5047198;28;20518;-72
2022/03/23 02:17:15;;;;;;;12.45;6.28;;;;;;;3.24;55.32;97397.28;5047312;28;20515;-73
2022/03/23 02:19:42;;;;;;;11.40;5.90;;;;;;;3.26;55.29;97402.41;5047113;28;20071;-72
2022/03/23 02:22:10;;;;;;;10.65;5.32;;;;;;;3.23;55.60;97394.81;5047572;28;20518;-73
2022/03/23 02:24:36;;;;;;;11.10;5.72;;;;;;;3.23;55.58;97395.63;5046804;28;20053;-72
2022/03/23 02:27:03;;;;;;;8.77;5.57;;;;;;;3.21;55.70;97395.06;5047255;28;20041;-72
2022/03/23 02:29:32;;;;;;;12.38;5.82;;;;;;;3.22;55.66;97393.19;5047114;28;20056;-72
2022/03/23 02:32:01;;;;;;;12.25;5.65;;;;;;;3.21;55.62;97400.44;5047349;28;20115;-72
2022/03/23 02:34:28;;;;;;;11.68;6.25;;;;;;;3.20;56.16;97403.38;5047382;28;20041;-72
2022/03/23 02:36:56;;;;;;;12.48;6.07;;;;;;;3.16;56.02;97408.44;5046755;28;20053;-72
2022/03/23 02:39:25;;;;;;;10.65;5.95;;;;;;;3.15;55.84;97404.13;5047423;28;20080;-72
2022/03/23 02:41:53;;;;;;;9.65;5.95;;;;;;;3.14;55.66;97406.00;5037194;28;20684;-72
2022/03/23 02:44:21;;;;;;;15.32;5.88;;;;;;;3.10;55.69;97404.84;5027476;28;20041;-72
2022/03/23 02:46:47;;;;;;;11.00;6.10;;;;;;;3.01;56.10;97394.72;5027459;28;20041;-72
2022/03/23 02:49:20;;;;;;;9.20;5.82;;;;;;;2.97;56.52;97393.56;5027078;28;20061;-72
2022/03/23 02:51:47;;;;;;;11.48;6.05;;;;;;;2.90;56.53;97403.69;5027000;28;20500;-72
2022/03/23 03:03:47;;;;;;;10.10;5.65;;;;;;;2.81;56.15;97396.00;4978867;28;20053;-74
2022/03/23 03:06:13;;;;;;;10.73;5.57;;;;;;;2.82;56.51;97400.34;5027057;28;20049;-72
2022/03/23 03:08:48;;;;;;;10.75;5.75;;;;;;;2.81;56.33;97396.00;5026859;28;20052;-73
2022/03/23 03:11:16;;;;;;;10.77;5.95;;;;;;;2.79;56.28;97398.13;5028083;28;20048;-72
2022/03/23 03:13:48;;;;;;;10.60;6.00;;;;;;;2.73;55.66;97393.72;5026399;28;20571;-74
2022/03/23 03:16:14;;;;;;;11.75;5.90;;;;;;;2.70;55.50;97394.19;5026315;28;20522;-74
2022/03/23 03:18:41;;;;;;;12.15;6.25;;;;;;;2.66;56.20;97393.03;5026853;28;20049;-72
2022/03/23 03:21:09;;;;;;;11.98;6.18;;;;;;;2.64;56.47;97400.56;5026082;28;20625;-73
2022/03/23 03:23:37;;;;;;;12.52;6.38;;;;;;;2.62;56.39;97397.31;5027183;28;20045;-72
2022/03/23 03:26:05;;;;;;;11.93;6.13;;;;;;;2.61;56.72;97401.06;5025715;28;20778;-72
2022/03/23 03:28:33;;;;;;;12.07;6.53;;;;;;;2.60;57.57;97399.41;5027578;28;20049;-72
2022/03/23 03:31:01;;;;;;;12.57;6.07;;;;;;;2.57;57.45;97395.34;5025992;28;20858;-72
2022/03/23 03:33:28;;;;;;;11.93;5.57;;;;;;;2.55;56.72;97402.00;5026668;28;20045;-72
2022/03/23 03:35:54;;;;;;;9.15;5.70;;;;;;;2.49;56.74;97408.34;5025686;28;20394;-74
2022/03/23 03:38:21;;;;;;;13.35;5.93;;;;;;;2.44;56.31;97400.19;5026286;28;20397;-72
2022/03/23 03:40:47;;;;;;;12.73;5.88;;;;;;;2.39;56.27;97410.81;5034902;28;20052;-72
2022/03/23 03:43:16;;;;;;;10.27;5.57;;;;;;;2.33;56.51;97405.34;5045902;28;20772;-72
2022/03/23 03:45:43;;;;;;;9.32;5.80;;;;;;;2.30;56.96;97405.84;5038049;28;20714;-72
2022/03/23 03:48:11;;;;;;;9.52;5.78;;;;;;;2.31;57.31;97417.41;5042539;28;20059;-72
2022/03/23 03:50:39;;;;;;;11.40;5.93;;;;;;;2.31;58.28;97412.03;5046774;28;20052;-72
2022/03/23 03:53:05;;;;;;;11.57;5.43;;;;;;;2.33;58.54;97409.91;5044976;28;20491;-72
2022/03/23 03:55:32;;;;;;;9.43;5.60;;;;;;;2.28;58.03;97418.69;5046385;28;20396;-72
2022/03/23 03:57:58;;;;;;;8.82;5.53;;;;;;;2.28;58.40;97417.88;5045914;28;20666;-72
2022/03/23 04:00:25;;;;;;;8.85;5.53;;;;;;;2.27;57.82;97411.69;5045664;28;20045;-72
2022/03/23 04:02:52;;;;;;;10.23;5.50;;;;;;;2.25;57.62;97413.81;5045933;28;20083;-72
2022/03/23 04:05:19;;;;;;;9.73;5.43;;;;;;;2.23;57.86;97413.22;5044991;28;20049;-72
2022/03/23 04:07:46;;;;;;;11.75;5.90;;;;;;;2.19;57.91;97409.38;5046132;28;20045;-72
2022/03/23 04:10:12;;;;;;;11.70;5.50;;;;;;;2.17;57.93;97414.19;5045148;28;20057;-73
2022/03/23 04:12:40;;;;;;;10.38;5.78;;;;;;;2.17;58.16;97416.88;5048648;28;20130;-72
2022/03/23 04:15:07;;;;;;;9.90;5.22;;;;;;;2.07;58.50;97419.34;5048712;28;20122;-72
2022/03/23 04:17:33;;;;;;;9.77;5.55;;;;;;;2.06;58.46;97415.03;5031362;28;20052;-72
2022/03/23 04:20:00;;;;;;;8.32;4.95;;;;;;;2.07;58.66;97416.66;5029578;28;20159;-72
2022/03/23 04:22:28;;;;;;;10.20;5.97;;;;;;;2.07;58.58;97419.34;5029248;28;20049;-72
2022/03/23 04:24:54;;;;;;;9.32;5.55;;;;;;;2.05;58.39;97426.84;5029482;28;20108;-73
2022/03/23 04:27:21;;;;;;;10.02;5.53;;;;;;;1.96;57.62;97422.88;5029539;28;20519;-72
2022/03/23 04:29:47;;;;;;;9.88;5.30;;;;;;;1.91;57.75;97423.59;5030103;28;20077;-72
2022/03/23 04:32:14;;;;;;;11.23;5.47;;;;;;;1.88;57.95;97428.59;5028920;28;20049;-72
2022/03/23 04:34:40;;;;;;;13.68;5.75;;;;;;;1.85;58.34;97418.34;5030028;28;20136;-72
2022/03/23 04:37:07;;;;;;;10.52;5.25;;;;;;;1.83;58.29;97426.66;5028125;28;20053;-72
2022/03/23 04:39:35;;;;;;;11.20;6.03;;;;;;;1.81;58.69;97426.88;5030052;28;20057;-72
2022/03/23 04:42:02;;;;;;;17.50;5.93;;;;;;;1.80;58.85;97427.91;5029225;28;20058;-72
2022/03/23 04:44:28;;;;;;;10.98;5.63;;;;;;;1.81;59.13;97432.22;5029446;28;20045;-72
2022/03/23 04:46:55;;;;;;;10.07;5.57;;;;;;;1.82;59.31;97436.53;5039900;28;20060;-72
2022/03/23 04:49:21;;;;;;;10.68;5.60;;;;;;;1.85;59.71;97442.53;5049316;28;20075;-72
2022/03/23 04:51:48;;;;;;;13.93;6.13;;;;;;;1.85;60.00;97440.66;5049402;28;20056;-72
2022/03/23 04:54:14;;;;;;;10.77;5.47;;;;;;;1.87;59.91;97437.72;5048427;28;20053;-72
2022/03/23 04:56:42;;;;;;;9.65;5.53;;;;;;;1.83;60.06;97437.38;5049444;28;20052;-73
2022/03/23 04:59:09;;;;;;;13.07;6.22;;;;;;;1.81;59.88;97442.97;5048534;28;20049;-73
2022/03/23 05:01:35;;;;;;;9.90;5.68;;;;;;;1.77;59.99;97449.88;5049585;28;20126;-72
2022/03/23 05:04:02;;;;;;;10.77;6.15;;;;;;;1.71;60.27;97445.44;5048263;28;20056;-71
2022/03/23 05:06:28;;;;;;;10.68;5.97;;;;;;;1.72;60.17;97444.41;5049613;28;20052;-73
2022/03/23 05:08:54;;;;;;;9.23;5.57;;;;;;;1.74;60.36;97444.16;5048692;28;20048;-72
2022/03/23 05:11:21;;;;;;;11.13;5.78;;;;;;;1.71;60.34;97450.00;5049124;28;20052;-72
2022/03/23 05:13:49;;;;;;;9.18;5.43;;;;;;;1.73;60.65;97454.09;5049025;28;20052;-72
2022/03/23 05:16:18;;;;;;;10.82;6.13;;;;;;;1.75;60.39;97454.66;5040230;28;20288;-72
2022/03/23 05:18:44;;;;;;;14.50;6.85;;;;;;;1.77;60.00;97455.22;5029266;28;20059;-72
2022/03/23 05:21:11;;;;;;;13.93;6.70;;;;;;;1.82;60.38;97459.91;5028177;28;20052;-72
2022/03/23 05:23:38;;;;;;;11.68;6.32;;;;;;;1.86;60.14;97462.94;5028932;28;20052;-72
2022/03/23 05:26:04;;;;;;;14.55;6.30;;;;;;;1.87;60.13;97464.56;5027457;28;20049;-72
2022/03/23 05:28:30;;;;;;;11.80;6.13;;;;;;;1.90;60.00;97459.56;5029120;28;20052;-72
2022/03/23 05:30:58;;;;;;;12.75;6.45;;;;;;;1.94;59.51;97462.59;5028057;28;20049;-72
2022/03/23 05:33:25;;;;;;;11.45;6.38;;;;;;;1.90;59.43;97464.94;5028394;28;20052;-72
2022/03/23 05:35:51;;;;;;;12.02;6.40;;;;;;;1.95;59.69;97473.09;5028208;28;20052;-72
2022/03/23 05:38:18;;;;;;;16.17;6.13;;;;;;;1.99;59.89;97474.28;5028227;28;20813;-72
2022/03/23 05:40:44;;;;;;;10.75;6.40;;;;;;;2.04;59.71;97476.25;5028727;28;20164;-72
2022/03/23 05:43:11;;;;;;;22.50;6.82;;;;;;;2.06;59.69;97468.75;5027668;28;20056;-72
2022/03/23 05:45:37;;;;;;;13.40;6.00;;;;;;;2.02;59.07;97478.34;5031071;28;20071;-72
2022/03/23 05:48:06;;;;;;;12.70;5.70;;;;;;;1.99;58.82;97481.50;5044890;28;20530;-72
2022/03/23 05:50:33;;;;;;;12.95;6.35;;;;;;;2.00;59.18;97475.09;5048602;28;20656;-72
2022/03/23 05:52:59;;;;;;;14.40;6.47;;;;;;;2.05;59.15;97477.88;5047418;28;20846;-72
2022/03/23 05:55:26;;;;;;;13.38;6.25;;;;;;;2.09;59.46;97477.19;5047970;28;20056;-72
2022/03/23 05:57:52;;;;;;;15.68;6.40;;;;;;;2.14;59.29;97475.63;5047452;28;20778;-72
2022/03/23 06:00:19;;;;;;;11.77;6.70;;;;;;;2.19;59.07;97473.88;5047700;28;20427;-73
2022/03/23 06:02:46;;;;;;;13.52;6.35;;;;;;;2.25;59.14;97478.31;5047941;28;20538;-73
2022/03/23 06:05:14;;;;;;;11.75;6.43;;;;;;;2.33;59.41;97486.00;5047196;28;20057;-72
2022/03/23 06:07:40;;;;;;;10.15;6.45;;;;;;;2.39;59.34;97486.91;5048056;28;20045;-73
2022/03/23 06:10:08;;;;;;;11.75;6.28;;;;;;;2.46;59.21;97492.19;5047145;28;20466;-73
2022/03/23 06:12:34;;;;;;;14.50;6.25;;;;;;;2.46;58.68;97494.88;5048581;28;20638;-73
2022/03/23 06:15:01;;;;;;;16.67;6.40;;;;;;;2.49;59.23;97494.38;5047383;28;20055;-75
2022/03/23 06:17:27;;;;;;;11.05;6.28;;;;;;;2.57;58.94;97494.00;5029837;28;20215;-74
2022/03/23 06:19:54;;;;;;;10.80;6.50;;;;;;;2.63;59.14;97493.03;5027327;28;20412;-76
2022/03/23 06:22:22;;;;;;;12.68;6.07;;;;;;;2.70;58.81;97496.41;5027378;28;20404;-74
2022/03/23 06:24:48;;;;;;;14.10;6.07;;;;;;;2.80;58.70;97496.59;5027411;28;20049;-74
2022/03/23 06:27:15;;;;;;;13.75;6.82;;;;;;;2.89;58.45;97488.97;5026854;28;20060;-74
2022/03/23 06:29:41;;;;;;;14.35;6.00;;;;;;;2.99;58.19;97496.41;5027528;28;20500;-75
2022/03/23 06:32:09;;;;;;;14.85;6.65;;;;;;;3.09;57.64;97493.91;5026651;28;20056;-75
2022/03/23 06:34:35;;;;;;;14.45;6.75;;;;;;;3.14;57.55;97491.31;5027473;28;20071;-75
2022/03/23 06:37:02;;;;;;;13.30;6.57;;;;;;;3.22;57.35;97493.59;5026401;28;20057;-74
2022/03/23 06:39:30;;;;;;;12.10;5.78;;;;;;;3.33;56.84;97492.69;5027802;28;20400;-74
2022/03/23 06:41:57;;;;;;;11.57;6.45;;;;;;;3.44;56.83;97484.78;5027116;28;20056;-74
2022/03/23 06:44:23;;;;;;;14.77;7.05;;;;;;;3.57;56.46;97492.56;5027298;28;20499;-74
2022/03/23 06:46:50;;;;;;;13.32;6.80;;;;;;;3.73;56.51;97494.41;5031658;28;20053;-74
2022/03/23 06:49:17;;;;;;;12.05;6.68;;;;;;;3.89;56.04;97490.88;5026759;28;20045;-74
2022/03/23 06:51:43;;;;;;;13.25;7.22;;;;;;;4.03;55.30;97490.56;5027055;28;20053;-75
2022/03/23 06:54:10;;;;;;;19.38;7.35;;;;;;;3.96;54.98;97495.28;5026667;28;20056;-75
2022/03/23 06:56:38;;;;;;;14.73;6.97;;;;;;;4.17;55.02;97499.91;5027026;28;20496;-74
2022/03/23 06:59:04;;;;;;;15.32;7.25;;;;;;;4.33;54.41;97504.47;5026211;28;20076;-75
2022/03/23 07:01:31;;;;;;;18.88;7.43;;;;;;;4.50;54.51;97508.97;5027356;28;20123;-74
2022/03/23 07:03:57;;;;;;;14.80;7.82;;;;;;;4.68;54.40;97501.38;5026632;28;20060;-74
2022/03/23 07:06:24;;;;;;;15.07;7.70;;;;;;;4.63;53.86;97503.19;5026724;28;20419;-74
2022/03/23 07:11:35;;;;;;;13.43;7.68;;;;;;;4.83;54.04;97498.03;5026660;28;20188;-75
2022/03/23 07:14:03;;;;;;;14.60;7.50;;;;;;;5.34;54.71;97500.44;5026977;28;20049;-74
2022/03/23 07:16:29;;;;;;;15.52;8.30;;;;;;;6.14;51.32;97517.56;5030376;28;20064;-74
2022/03/23 07:18:55;;;;;;;14.98;7.35;;;;;;;7.31;49.22;97513.47;5026936;28;20362;-75
2022/03/23 07:21:22;;;;;;;15.15;7.38;;;;;;;7.90;47.18;97505.88;5026199;28;20054;-74
2022/03/23 07:23:48;;;;;;;15.57;7.70;;;;;;;8.75;45.00;97508.69;5027474;28;20451;-74
2022/03/23 07:26:16;;;;;;;17.70;8.13;;;;;;;9.80;43.81;97516.47;5025772;28;20088;-75
2022/03/23 07:28:42;;;;;;;16.33;9.30;;;;;;;10.50;40.41;97524.31;5027481;28;20045;-74
2022/03/23 07:31:10;;;;;;;19.52;9.15;;;;;;;10.01;39.56;97521.75;5026009;28;20054;-74
2022/03/23 07:33:37;;;;;;;15.20;8.82;;;;;;;9.87;39.65;97527.88;5026668;28;20053;-75
2022/03/23 07:36:05;;;;;;;14.48;8.50;;;;;;;9.66;40.52;97527.22;5025978;28;20053;-74
2022/03/23 07:38:31;;;;;;;17.73;8.80;;;;;;;9.59;39.95;97518.53;5026593;28;20045;-75
2022/03/23 07:40:58;;;;;;;13.48;8.23;;;;;;;10.48;39.39;97521.06;5026877;28;20424;-74
2022/03/23 07:43:24;;;;;;;16.60;8.88;;;;;;;11.30;37.54;97520.06;5025981;28;20052;-74
2022/03/23 07:45:51;;;;;;;12.23;7.93;;;;;;;11.68;37.45;97527.13;5026855;28;20059;-74
2022/03/23 07:48:20;;;;;;;13.73;7.97;;;;;;;11.32;37.54;97523.31;5028188;28;20050;-74
2022/03/23 07:50:47;;;;;;;16.88;8.57;;;;;;;11.55;35.97;97525.16;5030870;28;20053;-74
2022/03/23 07:53:14;;;;;;;15.05;8.82;;;;;;;11.65;36.33;97537.84;5030134;28;20053;-76
2022/03/23 07:55:40;;;;;;;15.73;8.45;;;;;;;12.18;35.82;97516.53;5030074;28;20052;-75
2022/03/23 07:58:07;;;;;;;16.60;8.38;;;;;;;12.40;35.71;97526.78;5029772;28;20504;-75
2022/03/23 08:00:33;;;;;;;13.93;9.15;;;;;;;11.79;34.86;97526.97;5030390;28;20045;-75
2022/03/23 08:03:00;;;;;;;13.50;8.80;;;;;;;12.67;34.26;97520.53;5030246;28;20110;-74
2022/03/23 08:05:29;;;;;;;18.63;8.68;;;;;;;12.96;32.79;97516.72;5029574;28;20080;-75
2022/03/23 08:07:55;;;;;;;17.17;8.45;;;;;;;12.78;34.05;97524.69;5030478;28;20050;-75
2022/03/23 08:10:22;;;;;;;16.17;9.35;;;;;;;13.87;32.24;97524.00;5029642;28;20095;-75
2022/03/23 08:12:48;;;;;;;16.23;9.43;;;;;;;13.42;32.38;97527.50;5030963;28;20060;-75
2022/03/23 08:15:15;;;;;;;12.77;9.00;;;;;;;13.80;32.33;97530.72;5029092;28;20111;-75
2022/03/23 08:17:41;;;;;;;15.63;9.65;;;;;;;14.69;32.06;97531.78;5030836;28;20065;-74
2022/03/23 08:22:55;;;;;;;15.57;8.90;;;;;;;16.50;29.35;97524.88;5030251;28;20057;-75
2022/03/23 08:25:21;;;;;;;14.32;9.80;;;;;;;16.34;28.62;97532.84;5029717;28;20080;-75
2022/03/23 08:27:48;;;;;;;14.55;9.30;;;;;;;15.54;28.25;97534.28;5029530;28;20064;-74
2022/03/23 08:30:15;;;;;;;14.95;9.02;;;;;;;15.51;29.15;97532.22;5029878;28;20512;-74
2022/03/23 08:32:41;;;;;;;17.63;9.45;;;;;;;16.43;27.95;97533.63;5029652;28;20059;-74
2022/03/23 08:35:09;;;;;;;15.60;8.85;;;;;;;17.31;28.11;97534.91;5029993;28;20056;-76
2022/03/23 08:37:35;;;;;;;13.95;8.60;;;;;;;17.29;26.56;97537.19;5028982;28;20044;-75
2022/03/23 08:40:04;;;;;;;19.83;9.70;;;;;;;17.12;26.89;97529.84;5029854;28;20557;-74
2022/03/23 08:42:30;;;;;;;16.05;8.65;;;;;;;16.62;27.64;97532.44;5029508;28;20049;-75
2022/03/23 08:44:57;;;;;;;15.60;10.32;;;;;;;15.36;27.83;97531.53;5029745;28;20045;-73
2022/03/23 08:47:23;;;;;;;17.15;9.40;;;;;;;14.84;29.33;97536.88;5029294;28;20056;-73
2022/03/23 08:49:50;;;;;;;16.50;10.40;;;;;;;14.49;30.64;97535.09;5029905;28;20065;-73
2022/03/23 08:52:17;;;;;;;22.85;10.60;;;;;;;14.81;30.37;97537.50;5029306;28;20056;-73
2022/03/23 08:54:43;;;;;;;14.98;10.35;;;;;;;16.11;29.59;97536.91;5029147;28;20071;-74
2022/03/23 08:57:11;;;;;;;15.00;9.77;;;;;;;16.77;27.15;97529.19;5029181;28;20056;-75
2022/03/23 08:59:38;;;;;;;14.57;9.00;;;;;;;16.18;28.79;97528.97;5028612;28;20045;-75
2022/03/23 09:02:04;;;;;;;16.80;10.18;;;;;;;16.97;27.46;97515.84;5029103;28;20060;-75
2022/03/23 09:04:31;;;;;;;15.35;9.77;;;;;;;17.00;27.57;97517.91;5028957;28;20045;-77
2022/03/23 09:06:57;;;;;;;22.08;11.20;;;;;;;16.82;28.08;97519.94;5028903;28;20046;-76
2022/03/23 09:09:24;;;;;;;21.60;10.50;;;;;;;17.18;25.85;97524.97;5028319;28;20052;-75
2022/03/23 09:11:51;;;;;;;14.90;9.73;;;;;;;17.47;27.53;97524.94;5029134;28;20515;-76
2022/03/23 09:14:19;;;;;;;17.08;9.70;;;;;;;17.14;26.29;97526.75;5028602;28;20053;-76
2022/03/23 09:16:45;;;;;;;16.50;10.77;;;;;;;16.98;26.87;97534.78;5028489;28;20053;-75
2022/03/23 09:19:14;;;;;;;17.00;10.25;;;;;;;17.41;28.42;97523.50;5028804;28;20060;-76
2022/03/23 09:21:41;;;;;;;19.42;10.68;;;;;;;17.00;27.56;97534.44;5028358;28;20045;-75
2022/03/23 09:24:08;;;;;;;19.05;10.75;;;;;;;16.60;27.65;97527.28;5028688;28;20132;-75
2022/03/23 09:26:34;;;;;;;16.50;10.30;;;;;;;16.92;29.43;97523.13;5027578;28;20045;-75
2022/03/23 09:29:00;;;;;;;17.55;11.40;;;;;;;17.26;27.51;97529.59;5028800;28;20527;-76
2022/03/23 09:31:29;;;;;;;17.25;10.50;;;;;;;17.36;27.44;97523.69;5028049;28;20519;-75
2022/03/23 09:33:55;;;;;;;20.95;10.93;;;;;;;16.76;27.20;97524.84;5029172;28;20049;-75
2022/03/23 09:39:05;;;;;;;14.98;11.07;;;;;;;18.05;27.43;97529.84;5028178;28;20129;-75
2022/03/23 09:41:33;;;;;;;17.73;11.02;;;;;;;18.59;27.07;97525.13;5029041;28;20049;-75
2022/03/23 09:44:00;;;;;;;19.08;10.98;;;;;;;18.07;25.42;97524.84;5027958;28;20059;-75
2022/03/23 09:46:27;;;;;;;15.98;11.13;;;;;;;17.60;26.44;97516.75;5035149;28;20041;-76
2022/03/23 09:48:54;;;;;;;20.75;11.70;;;;;;;17.92;26.33;97513.28;5047506;28;20053;-75
2022/03/23 09:51:22;;;;;;;19.92;11.82;;;;;;;18.27;26.57;97518.47;5048068;28;20053;-75
2022/03/23 09:53:49;;;;;;;17.95;11.57;;;;;;;18.36;25.13;97516.41;5047896;28;20052;-75
2022/03/23 09:56:16;;;;;;;20.92;11.85;;;;;;;18.70;25.85;97514.47;5047589;28;20056;-76
2022/03/23 09:58:43;;;;;;;21.08;11.63;;;;;;;18.43;24.27;97511.16;5048259;28;20049;-75
2022/03/23 10:01:49;;;;;;;18.27;11.50;;;;;;;18.59;24.81;97508.56;5047361;28;20056;-77
2022/03/23 10:05:07;;;;;;;17.15;11.57;;;;;;;18.62;25.75;97507.06;5047673;28;20053;-75
2022/03/23 10:07:43;;;;;;;18.90;11.65;;;;;;;18.93;25.48;97501.84;5047220;28;20052;-75
2022/03/23 10:10:47;;;;;;;23.48;12.35;;;;;;;18.91;24.19;97498.63;5046070;28;20049;-76
2022/03/23 10:14:05;;;;;;;18.58;11.57;;;;;;;18.69;24.34;97496.31;5014723;28;20048;-76
2022/03/23 10:17:11;;;;;;;17.92;11.93;;;;;;;18.67;25.91;97496.59;5046609;28;20040;-76
2022/03/23 10:19:42;;;;;;;20.92;12.85;;;;;;;18.08;24.61;97502.44;5030758;28;20407;-76
2022/03/23 10:22:10;;;;;;;15.25;10.77;;;;;;;18.18;24.81;97495.69;5047905;28;20060;-77
2022/03/23 10:24:37;;;;;;;20.13;10.90;;;;;;;18.36;25.63;97488.84;5046743;28;20048;-76
2022/03/23 10:27:09;;;;;;;16.30;11.65;;;;;;;17.97;24.29;97493.78;5046882;28;20703;-75
2022/03/23 10:29:41;;;;;;;14.88;11.07;;;;;;;18.15;24.26;97493.59;5047065;28;20047;-75
2022/03/23 10:32:10;;;;;;;15.33;11.00;;;;;;;18.22;25.84;97491.94;5047150;28;20142;-75
2022/03/23 10:34:41;;;;;;;17.70;11.48;;;;;;;18.41;24.96;97491.38;5047524;28;20096;-76
2022/03/23 10:37:08;;;;;;;17.80;11.02;;;;;;;18.59;25.27;97483.75;5046051;28;20055;-75
2022/03/23 10:39:34;;;;;;;18.55;11.95;;;;;;;18.28;23.63;97492.50;5047240;28;20694;-75
2022/03/23 10:42:08;;;;;;;19.48;11.43;;;;;;;18.38;24.21;97492.09;5046539;28;20051;-76
2022/03/23 10:44:35;;;;;;;17.35;12.05;;;;;;;18.50;24.70;97483.81;5047639;28;20044;-76
2022/03/23 10:47:02;;;;;;;16.00;12.13;;;;;;;18.41;25.39;97476.78;5045980;28;20454;-76
2022/03/23 10:49:36;;;;;;;19.17;12.35;;;;;;;18.40;24.90;97484.25;5046867;28;20614;-76
2022/03/23 10:52:13;;;;;;;21.75;12.77;;;;;;;18.30;24.68;97479.19;5046043;28;20507;-75
2022/03/23 10:54:40;;;;;;;22.50;13.40;;;;;;;18.27;26.17;97474.38;5046634;28;20099;-76
2022/03/23 10:57:07;;;;;;;19.85;13.27;;;;;;;18.41;25.05;97472.09;5046170;28;20049;-77
2022/03/23 10:59:35;;;;;;;18.55;12.93;;;;;;;18.23;26.01;97474.22;5046008;28;20053;-76
2022/03/23 11:02:03;;;;;;;22.67;13.32;;;;;;;18.08;26.01;97466.59;5047687;28;20585;-76
2022/03/23 11:04:32;;;;;;;20.80;12.93;;;;;;;18.12;24.97;97462.03;5045991;28;20056;-76
2022/03/23 11:07:02;;;;;;;22.25;12.73;;;;;;;18.21;26.04;97467.44;5046363;28;20466;-76
2022/03/23 11:17:51;;;;;;;21.88;12.65;;;;;;;18.03;24.99;97453.03;5027139;28;20103;-76
2022/03/23 11:20:18;;;;;;;19.58;12.43;;;;;;;17.88;25.23;97440.69;5026926;28;20053;-77
2022/03/23 11:22:46;;;;;;;19.08;12.45;;;;;;;17.92;24.98;97447.16;5025813;28;20053;-76
2022/03/23 11:25:12;;;;;;;18.00;12.00;;;;;;;18.07;24.16;97450.41;5025952;28;20049;-76
2022/03/23 11:27:40;;;;;;;17.35;11.77;;;;;;;18.30;23.13;97440.59;5025902;28;20045;-76
2022/03/23 11:30:07;;;;;;;18.20;11.45;;;;;;;18.20;22.65;97435.50;5025808;28;20057;-77
2022/03/23 11:32:37;;;;;;;17.42;12.10;;;;;;;18.50;23.72;97434.19;5026425;28;20052;-77
2022/03/23 11:35:06;;;;;;;17.65;11.73;;;;;;;18.60;22.71;97429.38;5025070;28;20460;-76
2022/03/23 11:37:35;;;;;;;18.95;12.20;;;;;;;18.85;23.11;97438.50;5026020;28;20049;-77
2022/03/23 11:40:03;;;;;;;17.65;12.02;;;;;;;19.00;23.40;97440.53;5026483;28;20065;-76
2022/03/23 11:42:30;;;;;;;18.65;12.23;;;;;;;19.26;21.73;97431.88;5026485;28;20140;-77
2022/03/23 11:44:57;;;;;;;24.45;13.02;;;;;;;19.43;22.60;97431.63;5025771;28;20045;-77
2022/03/23 11:47:32;;;;;;;19.73;13.23;;;;;;;19.61;22.21;97431.34;5025490;28;20107;-76
2022/03/23 11:50:12;;;;;;;18.40;13.38;;;;;;;19.69;21.95;97430.41;5026025;28;20053;-77
2022/03/23 11:52:44;;;;;;;20.70;12.80;;;;;;;19.89;21.87;97425.81;5025612;28;20052;-76
2022/03/23 11:58:03;;;;;;;19.77;13.80;;;;;;;19.97;22.37;97425.66;5025364;28;20231;-77
2022/03/23 12:00:39;;;;;;;23.52;14.18;;;;;;;20.34;24.29;97411.63;5026496;28;20045;-77